Terminal Aerodrome Forecast
Issued by NWS

Home | Current Version | Previous Version | Text Only | Print | Product List | Glossary On
Versions: 1 2 3 4 5 6 7 8 9 10 11 12 13 14 15 16 17 18
000
FTUS45 KABQ 271100 RRA
TAFFMN
TAF
KFMN 271141Z 2712/2812 04004KT P6SM FEW090
     FM271800 25007KT P6SM SCT100
     FM272300 05010KT P6SM VCSH BKN100
     FM280400 11012KT P6SM BKN100
     FM280900 09008KT P6SM OVC080=

USA.gov is the U.S. government's official web portal to all federal, state and local government web resources and services.